Cottonwood, AZ (86326)

2:01 AM MST on April 25, 2017 (GMT -0700)
ME6330 | | Change Station
Active Advisory: Wind Advisory

Elev 3365 ft 34.75 °N, 112.03 °W | Updated 27 minutes ago

Overcast
Overcast
59.0 °F
Feels Like 59.0 °F
N
0.0
Wind Variable Wind from West
Gusts 1.0 mph

Today
High -- | Low -- °F
--% Chance of Precip.
Yesterday
High -- | Low -- °F
Precip. -- in
Pressure 29.72 in
Visibility 10.0 miles
Clouds Mostly Cloudy 8500 ft
Overcast 12000 ft
Dew Point 36 °F
Humidity 42%
Rainfall 0.00 in
Snow Depth Not available.
5:43 AM 7:08 PM
Waning Crescent, 2% visible
METAR KSEZ 250855Z AUTO 15013G18KT 10SM BKN085 OVC120 16/M01 A2972 RMK AO2
Pressure 29.72 in
Visibility 10.0 miles
Clouds Mostly Cloudy 8500 ft
Overcast 12000 ft
Dew Point 36 °F
Humidity 42%
Rainfall 0.00 in
Snow Depth Not available.
5:43 AM 7:08 PM
Waning Crescent, 2% visible
METAR KSEZ 250855Z AUTO 15013G18KT 10SM BKN085 OVC120 16/M01 A2972 RMK AO2

Get Your Daily Forecast Email!

Thanks for signing up!

Be on the lookout for a verification email in your inbox.

You'll start receiving severe weather alerts in your inbox..

×

10-Day Weather Forecast

Almanac

Astronomy

Apr. 25, 2017 Rise Set
Actual Time
Civil Twilight
Nautical Twilight
Astronomical Twilight
Moon
Length of Visible Light
Length of Day
Tomorrow will be .
, % of the Moon is Illuminated

Today's Extremes

State Highs State Lows

Community

WunderPhotos

WunderBlog® & News

Nearby

Air Quality

  Air Quality AQ Index Pollutant
Not available.

Snow Depth

Station Depth Elevation

Earthquake Activity

City Distance Mag. Time & Date
Minimum magnitude displayed is 2.5.

Coastal Water Temperatures

Place Temperature

Stations

Nearby Weather Stations

Station Location Temp. Windchill Dew Point Humidity Wind Precip. Elev Updated Type
                   

Watches & Warnings

Wind Advisory
Issued: 9:19 PM MDT Apr. 24, 2017 – National Weather Service

... Wind Advisory in effect from noon to 8 PM MST Tuesday...

The National Weather Service in Flagstaff has issued a Wind
Advisory, which is in effect from noon to 8 PM MST Tuesday.

* Timing... gusty west to northwest winds will increase late
morning and early afternoon. The winds will continue into
Tuesday evening.

* Winds... west to northwest winds 20 to 30 mph with gusts to
between 40 and 45 mph.

* Impacts... winds this strong can make driving difficult...
especially for high profile vehicles. Consider securing loose
belongings on your property.

Precautionary/preparedness actions...

A Wind Advisory means that sustained winds of 30 to 39 mph... or
gusts from 40 to 57 mph... are expected. Winds this strong can
make driving difficult... especially for high profile vehicles.
Consider securing loose belongings on your property. Additional
weather information is on the web at www.Weather.Gov/Flagstaff.